Time,TemperatureF,DewpointF,PressureIn,WindDirection,WindDirectionDegrees,WindSpeedMPH,WindSpeedGustMPH,Humidity,HourlyPrecipIn,Conditions,Clouds,dailyrainin,SoftwareType,DateUTC
2013-07-18 07:19:00,77.0,73.8,30.11,SW,215,2.0,2.0,90,0.00,,,0.00,Wunderground v.1.15,2013-07-18 12:19:00,
2013-07-18 07:20:00,77.1,73.9,30.11,SW,215,2.0,2.0,90,0.00,,,0.00,Wunderground v.1.15,2013-07-18 12:20:00,
2013-07-18 07:23:00,77.5,74.7,30.11,SW,215,1.0,2.0,91,0.00,,,0.00,Wunderground v.1.15,2013-07-18 12:23:00,
2013-07-18 07:27:00,77.9,74.7,30.11,SW,219,1.0,2.0,90,0.00,,,0.00,Wunderground v.1.15,2013-07-18 12:27:00,
2013-07-18 07:32:00,78.4,74.9,30.11,SW,220,0.0,2.0,89,0.00,,,0.00,Wunderground v.1.15,2013-07-18 12:32:00,
2013-07-18 07:37:00,79.0,75.1,30.11,SSW,195,1.0,3.0,88,0.00,,,0.00,Wunderground v.1.15,2013-07-18 12:37:00,
2013-07-18 07:42:00,79.5,75.3,30.11,SSW,195,1.0,1.0,87,0.00,,,0.00,Wunderground v.1.15,2013-07-18 12:42:00,
2013-07-18 07:48:00,80.1,75.5,30.11,SSW,195,1.0,4.0,86,0.00,,,0.00,Wunderground v.1.15,2013-07-18 12:48:00,
2013-07-18 07:54:00,80.5,75.9,30.11,SSW,195,1.0,3.0,86,0.00,,,0.00,Wunderground v.1.15,2013-07-18 12:54:00,
2013-07-18 08:00:00,81.1,76.2,30.11,SSW,196,1.0,1.0,85,0.00,,,0.00,Wunderground v.1.15,2013-07-18 13:00:00,
2013-07-18 08:05:00,81.6,76.6,30.11,SSW,196,1.0,2.0,85,0.00,,,0.00,Wunderground v.1.15,2013-07-18 13:05:00,
2013-07-18 08:10:00,81.9,76.9,30.11,SSW,199,1.0,1.0,85,0.00,,,0.00,Wunderground v.1.15,2013-07-18 13:10:00,
2013-07-18 08:16:00,82.4,76.7,30.11,SSW,199,1.0,3.0,83,0.00,,,0.00,Wunderground v.1.15,2013-07-18 13:16:00,
2013-07-18 08:22:00,82.7,77.0,30.11,SSW,199,1.0,1.0,83,0.00,,,0.00,Wunderground v.1.15,2013-07-18 13:22:00,
2013-07-18 08:27:00,83.0,76.9,30.11,SSW,199,1.0,1.0,82,0.00,,,0.00,Wunderground v.1.15,2013-07-18 13:27:00,
2013-07-18 08:32:00,83.4,77.0,30.11,SSW,199,1.0,2.0,81,0.00,,,0.00,Wunderground v.1.15,2013-07-18 13:32:00,
2013-07-18 08:38:00,83.9,77.4,30.11,SSW,199,1.0,3.0,81,0.00,,,0.00,Wunderground v.1.15,2013-07-18 13:38:00,
2013-07-18 08:43:00,84.3,77.1,30.11,SSW,209,2.0,4.0,79,0.00,,,0.00,Wunderground v.1.15,2013-07-18 13:43:00,
2013-07-18 08:49:00,84.5,76.9,30.11,SW,234,2.0,4.0,78,0.00,,,0.00,Wunderground v.1.15,2013-07-18 13:49:00,
2013-07-18 08:55:00,84.9,76.9,30.11,SW,234,1.0,3.0,77,0.00,,,0.00,Wunderground v.1.15,2013-07-18 13:55:00,
2013-07-18 09:00:00,85.2,77.6,30.11,WSW,248,1.0,1.0,78,0.00,,,0.00,Wunderground v.1.15,2013-07-18 14:00:00,
2013-07-18 09:06:00,85.6,77.6,30.11,SW,229,1.0,4.0,77,0.00,,,0.00,Wunderground v.1.15,2013-07-18 14:06:00,
2013-07-18 09:12:00,85.9,77.5,30.10,South,184,1.0,3.0,76,0.00,,,0.00,Wunderground v.1.15,2013-07-18 14:12:00,
2013-07-18 09:18:00,86.2,78.1,30.10,WNW,286,2.0,5.0,77,0.00,,,0.00,Wunderground v.1.15,2013-07-18 14:18:00,
2013-07-18 09:23:00,86.4,77.9,30.10,SSW,203,2.0,4.0,76,0.00,,,0.00,Wunderground v.1.15,2013-07-18 14:23:00,
2013-07-18 09:29:00,86.5,78.0,30.10,SW,214,2.0,4.0,76,0.00,,,0.00,Wunderground v.1.15,2013-07-18 14:29:00,
2013-07-18 09:35:00,86.6,78.1,30.10,WNW,294,2.0,5.0,76,0.00,,,0.00,Wunderground v.1.15,2013-07-18 14:35:00,
2013-07-18 09:40:00,86.7,78.2,30.10,SW,233,2.0,2.0,76,0.00,,,0.00,Wunderground v.1.15,2013-07-18 14:40:00,
2013-07-18 09:46:00,87.1,79.0,30.09,SW,235,2.0,3.0,77,0.00,,,0.00,Wunderground v.1.15,2013-07-18 14:46:00,
2013-07-18 09:52:00,87.5,78.6,30.09,West,278,1.0,4.0,75,0.00,,,0.00,Wunderground v.1.15,2013-07-18 14:52:00,
2013-07-18 09:58:00,87.7,78.0,30.09,SW,236,2.0,4.0,73,0.00,,,0.00,Wunderground v.1.15,2013-07-18 14:58:00,
2013-07-18 10:04:00,87.7,78.0,30.09,West,274,3.0,4.0,73,0.00,,,0.00,Wunderground v.1.15,2013-07-18 15:04:00,
2013-07-18 10:09:00,87.7,78.0,30.09,WSW,247,3.0,4.0,73,0.00,,,0.00,Wunderground v.1.15,2013-07-18 15:09:00,
2013-07-18 10:15:00,87.7,78.4,30.09,SSW,202,3.0,5.0,74,0.00,,,0.00,Wunderground v.1.15,2013-07-18 15:15:00,
2013-07-18 10:21:00,88.0,78.7,30.09,WSW,244,3.0,3.0,74,0.00,,,0.00,Wunderground v.1.15,2013-07-18 15:21:00,
2013-07-18 10:27:00,88.4,78.2,30.09,South,190,2.0,3.0,72,0.00,,,0.00,Wunderground v.1.15,2013-07-18 15:27:00,
2013-07-18 10:32:00,88.4,76.9,30.09,WSW,257,2.0,4.0,69,0.00,,,0.00,Wunderground v.1.15,2013-07-18 15:32:00,
2013-07-18 10:38:00,88.5,77.9,30.09,South,184,3.0,4.0,71,0.00,,,0.00,Wunderground v.1.15,2013-07-18 15:38:00,
2013-07-18 10:44:00,88.8,76.4,30.09,SSW,207,3.0,6.0,67,0.00,,,0.00,Wunderground v.1.15,2013-07-18 15:44:00,
2013-07-18 10:50:00,89.1,77.6,30.09,West,265,3.0,3.0,69,0.00,,,0.00,Wunderground v.1.15,2013-07-18 15:50:00,
2013-07-18 10:56:00,89.0,77.1,30.09,NW,319,3.0,4.0,68,0.00,,,0.00,Wunderground v.1.15,2013-07-18 15:56:00,
2013-07-18 11:02:00,88.6,77.1,30.09,SSW,192,3.0,3.0,69,0.00,,,0.00,Wunderground v.1.15,2013-07-18 16:02:00,
2013-07-18 11:08:00,88.1,77.5,30.09,West,268,1.0,3.0,71,0.00,,,0.00,Wunderground v.1.15,2013-07-18 16:08:00,
2013-07-18 11:13:00,88.1,77.9,30.09,South,182,1.0,2.0,72,0.00,,,0.00,Wunderground v.1.15,2013-07-18 16:13:00,
2013-07-18 11:19:00,88.8,77.7,30.09,SW,215,2.0,6.0,70,0.00,,,0.00,Wunderground v.1.15,2013-07-18 16:19:00,
2013-07-18 11:24:00,89.4,77.4,30.09,SW,230,3.0,8.0,68,0.00,,,0.00,Wunderground v.1.15,2013-07-18 16:24:00,
2013-07-18 11:30:00,89.7,76.8,30.09,SSW,202,4.0,5.0,66,0.00,,,0.00,Wunderground v.1.15,2013-07-18 16:30:00,
2013-07-18 11:35:00,89.8,77.4,30.09,WSW,239,4.0,7.0,67,0.00,,,0.00,Wunderground v.1.15,2013-07-18 16:35:00,
2013-07-18 11:41:00,89.6,76.3,30.08,SW,225,4.0,6.0,65,0.00,,,0.00,Wunderground v.1.15,2013-07-18 16:41:00,
2013-07-18 11:47:00,89.4,77.4,30.08,West,275,3.0,6.0,68,0.00,,,0.00,Wunderground v.1.15,2013-07-18 16:47:00,
2013-07-18 11:53:00,89.8,76.5,30.08,SSW,206,2.0,4.0,65,0.00,,,0.00,Wunderground v.1.15,2013-07-18 16:53:00,
2013-07-18 11:59:00,90.0,77.1,30.08,SW,231,2.0,5.0,66,0.00,,,0.00,Wunderground v.1.15,2013-07-18 16:59:00,
2013-07-18 12:05:00,90.0,74.7,30.08,SW,233,3.0,6.0,61,0.00,,,0.00,Wunderground v.1.15,2013-07-18 17:05:00,
2013-07-18 12:11:00,90.2,76.4,30.08,SSE,150,3.0,3.0,64,0.00,,,0.00,Wunderground v.1.15,2013-07-18 17:11:00,
2013-07-18 12:17:00,90.7,76.8,30.08,WSW,238,2.0,4.0,64,0.00,,,0.00,Wunderground v.1.15,2013-07-18 17:17:00,
2013-07-18 12:23:00,91.0,76.2,30.07,West,270,3.0,5.0,62,0.00,,,0.00,Wunderground v.1.15,2013-07-18 17:23:00,
2013-07-18 12:29:00,90.7,76.4,30.07,West,267,2.0,5.0,63,0.00,,,0.00,Wunderground v.1.15,2013-07-18 17:29:00,
2013-07-18 12:34:00,90.8,77.4,30.07,SSW,209,3.0,6.0,65,0.00,,,0.00,Wunderground v.1.15,2013-07-18 17:34:00,
2013-07-18 12:39:00,90.3,75.5,30.07,West,274,3.0,6.0,62,0.00,,,0.00,Wunderground v.1.15,2013-07-18 17:39:00,
2013-07-18 12:45:00,90.4,76.6,30.07,SW,214,3.0,5.0,64,0.00,,,0.00,Wunderground v.1.15,2013-07-18 17:45:00,
2013-07-18 12:50:00,90.6,75.8,30.06,West,278,3.0,3.0,62,0.00,,,0.00,Wunderground v.1.15,2013-07-18 17:50:00,
2013-07-18 12:55:00,90.3,76.9,30.06,SSW,192,3.0,7.0,65,0.00,,,0.00,Wunderground v.1.15,2013-07-18 17:55:00,
2013-07-18 13:01:00,90.7,75.4,30.06,WSW,254,4.0,6.0,61,0.00,,,0.00,Wunderground v.1.15,2013-07-18 18:01:00,
2013-07-18 13:07:00,91.1,75.3,30.06,West,281,4.0,6.0,60,0.00,,,0.00,Wunderground v.1.15,2013-07-18 18:07:00,
2013-07-18 13:12:00,91.4,75.6,30.05,West,262,3.0,5.0,60,0.00,,,0.00,Wunderground v.1.15,2013-07-18 18:12:00,
2013-07-18 13:18:00,91.4,77.0,30.05,SW,231,3.0,5.0,63,0.00,,,0.00,Wunderground v.1.15,2013-07-18 18:18:00,
2013-07-18 13:24:00,91.3,75.5,30.05,SW,222,4.0,6.0,60,0.00,,,0.00,Wunderground v.1.15,2013-07-18 18:24:00,
2013-07-18 13:29:00,91.3,76.5,30.05,NW,306,3.0,6.0,62,0.00,,,0.00,Wunderground v.1.15,2013-07-18 18:29:00,
2013-07-18 13:35:00,91.3,76.9,30.04,WSW,256,3.0,4.0,63,0.00,,,0.00,Wunderground v.1.15,2013-07-18 18:35:00,
2013-07-18 13:40:00,91.5,77.1,30.04,WNW,283,3.0,4.0,63,0.00,,,0.00,Wunderground v.1.15,2013-07-18 18:40:00,
2013-07-18 13:46:00,91.7,76.8,30.04,WSW,250,3.0,5.0,62,0.00,,,0.00,Wunderground v.1.15,2013-07-18 18:46:00,
2013-07-18 13:52:00,91.5,75.1,30.04,South,184,3.0,5.0,59,0.00,,,0.00,Wunderground v.1.15,2013-07-18 18:52:00,
2013-07-18 13:58:00,91.6,77.2,30.03,SW,219,4.0,8.0,63,0.00,,,0.00,Wunderground v.1.15,2013-07-18 18:58:00,
2013-07-18 14:04:00,91.9,75.5,30.03,SSW,202,3.0,5.0,59,0.00,,,0.00,Wunderground v.1.15,2013-07-18 19:04:00,
2013-07-18 14:10:00,92.2,75.8,30.03,West,264,3.0,5.0,59,0.00,,,0.00,Wunderground v.1.15,2013-07-18 19:10:00,
2013-07-18 14:15:00,91.9,75.0,30.03,SW,227,4.0,8.0,58,0.00,,,0.00,Wunderground v.1.15,2013-07-18 19:15:00,
2013-07-18 14:21:00,92.4,75.5,30.03,West,261,4.0,6.0,58,0.00,,,0.00,Wunderground v.1.15,2013-07-18 19:21:00,
2013-07-18 14:27:00,92.4,75.5,30.02,SSW,192,4.0,11.0,58,0.00,,,0.00,Wunderground v.1.15,2013-07-18 19:27:00,
2013-07-18 14:33:00,92.3,75.4,30.02,SSW,205,4.0,8.0,58,0.00,,,0.00,Wunderground v.1.15,2013-07-18 19:33:00,
2013-07-18 14:38:00,92.3,76.4,30.02,West,266,4.0,8.0,60,0.00,,,0.00,Wunderground v.1.15,2013-07-18 19:38:00,
2013-07-18 14:44:00,91.1,75.3,30.02,NW,304,3.0,5.0,60,0.00,,,0.00,Wunderground v.1.15,2013-07-18 19:44:00,
2013-07-18 14:50:00,88.8,75.5,30.02,WSW,252,4.0,4.0,65,0.00,,,0.00,Wunderground v.1.15,2013-07-18 19:50:00,
2013-07-18 14:56:00,86.9,74.2,30.02,WNW,303,4.0,5.0,66,0.00,,,0.00,Wunderground v.1.15,2013-07-18 19:56:00,
2013-07-18 15:01:00,85.4,73.6,30.01,SW,227,3.0,4.0,68,0.00,,,0.00,Wunderground v.1.15,2013-07-18 20:01:00,
2013-07-18 15:06:00,84.5,73.6,30.01,SW,230,3.0,5.0,70,0.00,,,0.00,Wunderground v.1.15,2013-07-18 20:06:00,
2013-07-18 15:12:00,84.0,73.2,30.01,SSW,212,2.0,5.0,70,0.00,,,0.00,Wunderground v.1.15,2013-07-18 20:12:00,
2013-07-18 15:18:00,83.7,73.3,30.01,SW,230,2.0,5.0,71,0.00,,,0.00,Wunderground v.1.15,2013-07-18 20:18:00,
2013-07-18 15:23:00,83.6,73.2,30.01,WSW,245,2.0,2.0,71,0.00,,,0.00,Wunderground v.1.15,2013-07-18 20:23:00,
2013-07-18 15:29:00,83.5,73.5,30.00,SSW,207,1.0,2.0,72,0.00,,,0.00,Wunderground v.1.15,2013-07-18 20:29:00,
2013-07-18 15:35:00,83.3,72.9,30.00,SW,217,2.0,4.0,71,0.00,,,0.00,Wunderground v.1.15,2013-07-18 20:35:00,
2013-07-18 15:41:00,83.3,72.9,30.00,SW,236,2.0,3.0,71,0.00,,,0.00,Wunderground v.1.15,2013-07-18 20:41:00,
2013-07-18 15:47:00,83.5,73.1,30.00,SSW,213,1.0,3.0,71,0.00,,,0.00,Wunderground v.1.15,2013-07-18 20:47:00,
2013-07-18 15:53:00,84.0,73.6,30.00,SSW,212,0.0,0.0,71,0.00,,,0.00,Wunderground v.1.15,2013-07-18 20:53:00,
2013-07-18 15:58:00,84.5,73.2,30.00,SW,222,0.0,0.0,69,0.00,,,0.00,Wunderground v.1.15,2013-07-18 20:58:00,
2013-07-18 16:04:00,85.2,73.9,29.99,SW,235,0.0,1.0,69,0.00,,,0.00,Wunderground v.1.15,2013-07-18 21:04:00,
2013-07-18 16:09:00,86.0,74.2,29.99,WSW,238,1.0,2.0,68,0.00,,,0.00,Wunderground v.1.15,2013-07-18 21:09:00,
2013-07-18 16:15:00,86.8,73.6,29.99,West,271,0.0,2.0,65,0.00,,,0.00,Wunderground v.1.15,2013-07-18 21:15:00,
2013-07-18 16:21:00,87.4,73.7,29.99,West,270,1.0,2.0,64,0.00,,,0.00,Wunderground v.1.15,2013-07-18 21:21:00,
2013-07-18 16:27:00,87.8,74.6,29.99,West,259,1.0,3.0,65,0.00,,,0.00,Wunderground v.1.15,2013-07-18 21:27:00,
2013-07-18 16:33:00,88.8,75.0,29.99,West,273,1.0,1.0,64,0.00,,,0.00,Wunderground v.1.15,2013-07-18 21:33:00,
2013-07-18 16:38:00,89.7,75.4,29.99,SSW,201,1.0,3.0,63,0.00,,,0.00,Wunderground v.1.15,2013-07-18 21:38:00,
2013-07-18 16:44:00,90.3,75.5,29.98,West,270,1.0,2.0,62,0.00,,,0.00,Wunderground v.1.15,2013-07-18 21:44:00,